sensor_id;sensor_type;location;lat;lon;timestamp;P1;durP1;ratioP1;P2;durP2;ratioP2
2201;SDS011;1107;48.654;9.250;2022-10-22T00:02:13;2.50;;;0.70;;
2201;SDS011;1107;48.654;9.250;2022-10-22T00:04:44;1.50;;;0.83;;
2201;SDS011;1107;48.654;9.250;2022-10-22T00:07:11;8.73;;;0.90;;
2201;SDS011;1107;48.654;9.250;2022-10-22T00:09:38;1.50;;;0.70;;
2201;SDS011;1107;48.654;9.250;2022-10-22T00:12:06;1.87;;;0.80;;
2201;SDS011;1107;48.654;9.250;2022-10-22T00:14:33;1.37;;;0.70;;
2201;SDS011;1107;48.654;9.250;2022-10-22T00:17:01;3.10;;;1.00;;
2201;SDS011;1107;48.654;9.250;2022-10-22T00:19:28;1.58;;;0.93;;
2201;SDS011;1107;48.654;9.250;2022-10-22T00:21:55;1.47;;;0.80;;
2201;SDS011;1107;48.654;9.250;2022-10-22T00:24:22;1.50;;;0.93;;
2201;SDS011;1107;48.654;9.250;2022-10-22T00:26:50;1.63;;;0.83;;
2201;SDS011;1107;48.654;9.250;2022-10-22T00:29:18;1.57;;;1.17;;
2201;SDS011;1107;48.654;9.250;2022-10-22T00:31:46;1.60;;;1.00;;
2201;SDS011;1107;48.654;9.250;2022-10-22T00:34:14;8.50;;;1.20;;
2201;SDS011;1107;48.654;9.250;2022-10-22T00:36:42;3.50;;;1.67;;
2201;SDS011;1107;48.654;9.250;2022-10-22T00:39:09;1.40;;;0.90;;
2201;SDS011;1107;48.654;9.250;2022-10-22T00:41:37;3.00;;;1.03;;
2201;SDS011;1107;48.654;9.250;2022-10-22T00:44:04;1.70;;;1.20;;
2201;SDS011;1107;48.654;9.250;2022-10-22T00:46:33;1.50;;;1.07;;
2201;SDS011;1107;48.654;9.250;2022-10-22T00:49:01;3.93;;;1.40;;
2201;SDS011;1107;48.654;9.250;2022-10-22T00:51:31;1.57;;;1.00;;
2201;SDS011;1107;48.654;9.250;2022-10-22T00:54:02;1.60;;;1.33;;
2201;SDS011;1107;48.654;9.250;2022-10-22T00:56:31;1.50;;;1.00;;
2201;SDS011;1107;48.654;9.250;2022-10-22T00:58:59;1.50;;;1.00;;
2201;SDS011;1107;48.654;9.250;2022-10-22T01:01:28;2.00;;;1.30;;
2201;SDS011;1107;48.654;9.250;2022-10-22T01:03:57;1.60;;;1.20;;
2201;SDS011;1107;48.654;9.250;2022-10-22T01:06:26;1.50;;;1.00;;
2201;SDS011;1107;48.654;9.250;2022-10-22T01:08:57;1.70;;;1.30;;
2201;SDS011;1107;48.654;9.250;2022-10-22T01:11:34;1.40;;;0.87;;
2201;SDS011;1107;48.654;9.250;2022-10-22T01:14:12;1.50;;;1.00;;
2201;SDS011;1107;48.654;9.250;2022-10-22T01:16:46;1.50;;;1.00;;
2201;SDS011;1107;48.654;9.250;2022-10-22T01:19:28;2.07;;;1.40;;
2201;SDS011;1107;48.654;9.250;2022-10-22T01:22:16;1.90;;;0.90;;
2201;SDS011;1107;48.654;9.250;2022-10-22T01:24:56;1.40;;;0.90;;
2201;SDS011;1107;48.654;9.250;2022-10-22T01:27:29;2.37;;;0.83;;
2201;SDS011;1107;48.654;9.250;2022-10-22T01:30:06;1.70;;;0.80;;
2201;SDS011;1107;48.654;9.250;2022-10-22T01:32:35;1.60;;;0.80;;
2201;SDS011;1107;48.654;9.250;2022-10-22T01:35:07;1.60;;;0.90;;
2201;SDS011;1107;48.654;9.250;2022-10-22T01:37:38;1.43;;;0.80;;
2201;SDS011;1107;48.654;9.250;2022-10-22T01:40:09;1.40;;;0.80;;
2201;SDS011;1107;48.654;9.250;2022-10-22T01:42:37;1.50;;;0.90;;
2201;SDS011;1107;48.654;9.250;2022-10-22T01:45:11;1.40;;;0.80;;
2201;SDS011;1107;48.654;9.250;2022-10-22T01:47:39;1.50;;;0.70;;
2201;SDS011;1107;48.654;9.250;2022-10-22T01:50:19;1.60;;;1.00;;
2201;SDS011;1107;48.654;9.250;2022-10-22T01:53:12;1.40;;;0.80;;
2201;SDS011;1107;48.654;9.250;2022-10-22T01:55:48;3.20;;;2.20;;
2201;SDS011;1107;48.654;9.250;2022-10-22T01:58:27;5.20;;;0.90;;
2201;SDS011;1107;48.654;9.250;2022-10-22T02:01:05;2.43;;;0.80;;
2201;SDS011;1107;48.654;9.250;2022-10-22T02:03:39;1.40;;;0.70;;
2201;SDS011;1107;48.654;9.250;2022-10-22T02:06:13;1.40;;;0.80;;
2201;SDS011;1107;48.654;9.250;2022-10-22T02:08:44;1.40;;;0.80;;
2201;SDS011;1107;48.654;9.250;2022-10-22T02:11:12;1.40;;;0.87;;
2201;SDS011;1107;48.654;9.250;2022-10-22T02:13:41;1.50;;;1.27;;
2201;SDS011;1107;48.654;9.250;2022-10-22T02:16:12;2.03;;;0.90;;
2201;SDS011;1107;48.654;9.250;2022-10-22T02:18:44;1.30;;;0.70;;
2201;SDS011;1107;48.654;9.250;2022-10-22T02:21:14;3.70;;;1.00;;
2201;SDS011;1107;48.654;9.250;2022-10-22T02:23:42;1.50;;;1.10;;
2201;SDS011;1107;48.654;9.250;2022-10-22T02:26:13;1.53;;;1.10;;
2201;SDS011;1107;48.654;9.250;2022-10-22T02:28:48;1.40;;;0.80;;
2201;SDS011;1107;48.654;9.250;2022-10-22T02:31:20;1.40;;;0.80;;
2201;SDS011;1107;48.654;9.250;2022-10-22T02:33:49;1.30;;;0.70;;
2201;SDS011;1107;48.654;9.250;2022-10-22T02:36:20;1.80;;;1.00;;
2201;SDS011;1107;48.654;9.250;2022-10-22T02:38:48;1.30;;;0.70;;
2201;SDS011;1107;48.654;9.250;2022-10-22T02:41:17;3.10;;;0.93;;
2201;SDS011;1107;48.654;9.250;2022-10-22T02:43:48;1.40;;;0.73;;
2201;SDS011;1107;48.654;9.250;2022-10-22T02:46:16;1.40;;;0.70;;
2201;SDS011;1107;48.654;9.250;2022-10-22T02:48:45;1.80;;;0.70;;
2201;SDS011;1107;48.654;9.250;2022-10-22T02:51:12;1.50;;;0.80;;
2201;SDS011;1107;48.654;9.250;2022-10-22T02:53:39;1.40;;;0.80;;
2201;SDS011;1107;48.654;9.250;2022-10-22T02:56:06;1.40;;;0.60;;
2201;SDS011;1107;48.654;9.250;2022-10-22T02:58:33;1.40;;;0.80;;
2201;SDS011;1107;48.654;9.250;2022-10-22T03:01:00;1.30;;;0.80;;
2201;SDS011;1107;48.654;9.250;2022-10-22T03:03:27;1.23;;;0.57;;
2201;SDS011;1107;48.654;9.250;2022-10-22T03:05:56;1.30;;;0.70;;
2201;SDS011;1107;48.654;9.250;2022-10-22T03:08:23;2.07;;;0.70;;
2201;SDS011;1107;48.654;9.250;2022-10-22T03:10:50;1.40;;;0.70;;
2201;SDS011;1107;48.654;9.250;2022-10-22T03:13:17;1.27;;;0.60;;
2201;SDS011;1107;48.654;9.250;2022-10-22T03:15:44;1.50;;;0.63;;
2201;SDS011;1107;48.654;9.250;2022-10-22T03:18:14;1.40;;;0.70;;
2201;SDS011;1107;48.654;9.250;2022-10-22T03:20:40;1.40;;;0.90;;
2201;SDS011;1107;48.654;9.250;2022-10-22T03:23:09;1.30;;;0.70;;
2201;SDS011;1107;48.654;9.250;2022-10-22T03:25:38;1.40;;;0.70;;
2201;SDS011;1107;48.654;9.250;2022-10-22T03:28:07;1.30;;;0.60;;
2201;SDS011;1107;48.654;9.250;2022-10-22T03:30:36;1.60;;;0.70;;
2201;SDS011;1107;48.654;9.250;2022-10-22T03:33:03;15.93;;;0.90;;
2201;SDS011;1107;48.654;9.250;2022-10-22T03:35:30;2.73;;;0.80;;
2201;SDS011;1107;48.654;9.250;2022-10-22T03:37:58;1.40;;;0.80;;
2201;SDS011;1107;48.654;9.250;2022-10-22T03:40:27;1.40;;;0.77;;
2201;SDS011;1107;48.654;9.250;2022-10-22T03:42:55;1.60;;;0.90;;
2201;SDS011;1107;48.654;9.250;2022-10-22T03:45:23;3.73;;;0.60;;
2201;SDS011;1107;48.654;9.250;2022-10-22T03:47:50;1.30;;;0.60;;
2201;SDS011;1107;48.654;9.250;2022-10-22T03:50:17;1.33;;;0.70;;
2201;SDS011;1107;48.654;9.250;2022-10-22T03:52:44;1.30;;;0.67;;
2201;SDS011;1107;48.654;9.250;2022-10-22T03:55:11;2.80;;;0.70;;
2201;SDS011;1107;48.654;9.250;2022-10-22T03:57:39;1.30;;;0.60;;
2201;SDS011;1107;48.654;9.250;2022-10-22T04:00:07;1.37;;;0.67;;
2201;SDS011;1107;48.654;9.250;2022-10-22T04:02:35;4.73;;;0.90;;
2201;SDS011;1107;48.654;9.250;2022-10-22T04:05:02;1.40;;;0.70;;
2201;SDS011;1107;48.654;9.250;2022-10-22T04:07:29;1.90;;;0.70;;
2201;SDS011;1107;48.654;9.250;2022-10-22T04:09:56;1.40;;;0.80;;
2201;SDS011;1107;48.654;9.250;2022-10-22T04:12:23;1.30;;;0.70;;
2201;SDS011;1107;48.654;9.250;2022-10-22T04:14:51;1.50;;;0.70;;
2201;SDS011;1107;48.654;9.250;2022-10-22T04:17:18;1.80;;;0.70;;
2201;SDS011;1107;48.654;9.250;2022-10-22T04:19:45;1.40;;;0.97;;
2201;SDS011;1107;48.654;9.250;2022-10-22T04:22:12;1.40;;;0.70;;
2201;SDS011;1107;48.654;9.250;2022-10-22T04:24:39;1.27;;;0.50;;
2201;SDS011;1107;48.654;9.250;2022-10-22T04:27:06;3.50;;;0.70;;
2201;SDS011;1107;48.654;9.250;2022-10-22T04:29:33;1.47;;;0.87;;
2201;SDS011;1107;48.654;9.250;2022-10-22T04:32:02;2.27;;;0.60;;
2201;SDS011;1107;48.654;9.250;2022-10-22T04:34:29;3.63;;;1.63;;
2201;SDS011;1107;48.654;9.250;2022-10-22T04:36:56;1.30;;;0.60;;
2201;SDS011;1107;48.654;9.250;2022-10-22T04:39:23;1.50;;;0.70;;
2201;SDS011;1107;48.654;9.250;2022-10-22T04:41:50;1.40;;;0.73;;
2201;SDS011;1107;48.654;9.250;2022-10-22T04:44:17;2.00;;;0.80;;
2201;SDS011;1107;48.654;9.250;2022-10-22T04:46:44;1.30;;;0.53;;
2201;SDS011;1107;48.654;9.250;2022-10-22T04:49:12;4.50;;;0.70;;
2201;SDS011;1107;48.654;9.250;2022-10-22T04:51:39;1.40;;;0.60;;
2201;SDS011;1107;48.654;9.250;2022-10-22T04:54:06;1.53;;;0.70;;
2201;SDS011;1107;48.654;9.250;2022-10-22T04:56:33;1.30;;;0.70;;
2201;SDS011;1107;48.654;9.250;2022-10-22T04:59:02;1.30;;;0.60;;
2201;SDS011;1107;48.654;9.250;2022-10-22T05:01:31;1.30;;;0.60;;
2201;SDS011;1107;48.654;9.250;2022-10-22T05:03:59;1.30;;;0.57;;
2201;SDS011;1107;48.654;9.250;2022-10-22T05:06:29;1.30;;;0.57;;
2201;SDS011;1107;48.654;9.250;2022-10-22T05:08:57;1.60;;;0.63;;
2201;SDS011;1107;48.654;9.250;2022-10-22T05:11:27;1.83;;;0.60;;
2201;SDS011;1107;48.654;9.250;2022-10-22T05:13:55;1.30;;;0.60;;
2201;SDS011;1107;48.654;9.250;2022-10-22T05:16:24;1.23;;;0.50;;
2201;SDS011;1107;48.654;9.250;2022-10-22T05:18:51;1.20;;;0.50;;
2201;SDS011;1107;48.654;9.250;2022-10-22T05:21:18;1.30;;;0.70;;
2201;SDS011;1107;48.654;9.250;2022-10-22T05:23:48;6.67;;;0.87;;
2201;SDS011;1107;48.654;9.250;2022-10-22T05:26:17;1.40;;;0.53;;
2201;SDS011;1107;48.654;9.250;2022-10-22T05:28:45;2.70;;;0.73;;
2201;SDS011;1107;48.654;9.250;2022-10-22T05:31:12;1.30;;;0.50;;
2201;SDS011;1107;48.654;9.250;2022-10-22T05:33:40;1.73;;;0.67;;
2201;SDS011;1107;48.654;9.250;2022-10-22T05:36:09;1.23;;;0.53;;
2201;SDS011;1107;48.654;9.250;2022-10-22T05:38:39;3.50;;;0.60;;
2201;SDS011;1107;48.654;9.250;2022-10-22T05:41:08;1.73;;;0.63;;
2201;SDS011;1107;48.654;9.250;2022-10-22T05:43:36;4.30;;;0.70;;
2201;SDS011;1107;48.654;9.250;2022-10-22T05:46:05;1.30;;;0.60;;
2201;SDS011;1107;48.654;9.250;2022-10-22T05:48:33;1.40;;;0.70;;
2201;SDS011;1107;48.654;9.250;2022-10-22T05:51:00;1.20;;;0.50;;
2201;SDS011;1107;48.654;9.250;2022-10-22T05:53:29;1.40;;;0.60;;
2201;SDS011;1107;48.654;9.250;2022-10-22T05:55:58;1.30;;;0.60;;
2201;SDS011;1107;48.654;9.250;2022-10-22T05:58:28;1.20;;;0.50;;
2201;SDS011;1107;48.654;9.250;2022-10-22T06:00:59;1.37;;;0.77;;
2201;SDS011;1107;48.654;9.250;2022-10-22T06:03:27;1.40;;;0.80;;
2201;SDS011;1107;48.654;9.250;2022-10-22T06:05:55;1.30;;;0.70;;
2201;SDS011;1107;48.654;9.250;2022-10-22T06:08:24;1.50;;;1.23;;
2201;SDS011;1107;48.654;9.250;2022-10-22T06:10:52;1.43;;;0.80;;
2201;SDS011;1107;48.654;9.250;2022-10-22T06:13:19;1.30;;;0.60;;
2201;SDS011;1107;48.654;9.250;2022-10-22T06:15:48;4.30;;;0.70;;
2201;SDS011;1107;48.654;9.250;2022-10-22T06:18:16;10.43;;;0.70;;
2201;SDS011;1107;48.654;9.250;2022-10-22T06:20:43;7.23;;;0.60;;
2201;SDS011;1107;48.654;9.250;2022-10-22T06:23:11;1.47;;;0.90;;
2201;SDS011;1107;48.654;9.250;2022-10-22T06:25:38;1.60;;;0.90;;
2201;SDS011;1107;48.654;9.250;2022-10-22T06:28:05;1.50;;;1.00;;
2201;SDS011;1107;48.654;9.250;2022-10-22T06:30:32;1.40;;;0.70;;
2201;SDS011;1107;48.654;9.250;2022-10-22T06:33:00;4.20;;;1.10;;
2201;SDS011;1107;48.654;9.250;2022-10-22T06:35:27;1.50;;;1.10;;
2201;SDS011;1107;48.654;9.250;2022-10-22T06:37:54;1.40;;;0.83;;
2201;SDS011;1107;48.654;9.250;2022-10-22T06:40:21;1.30;;;0.70;;
2201;SDS011;1107;48.654;9.250;2022-10-22T06:42:48;3.10;;;0.70;;
2201;SDS011;1107;48.654;9.250;2022-10-22T06:45:15;1.60;;;0.80;;
2201;SDS011;1107;48.654;9.250;2022-10-22T06:47:42;1.50;;;0.97;;
2201;SDS011;1107;48.654;9.250;2022-10-22T06:50:12;1.40;;;0.90;;
2201;SDS011;1107;48.654;9.250;2022-10-22T06:52:39;1.43;;;0.80;;
2201;SDS011;1107;48.654;9.250;2022-10-22T06:55:06;1.40;;;0.90;;
2201;SDS011;1107;48.654;9.250;2022-10-22T06:57:33;1.40;;;0.70;;
2201;SDS011;1107;48.654;9.250;2022-10-22T07:00:00;1.30;;;0.70;;
2201;SDS011;1107;48.654;9.250;2022-10-22T07:02:27;2.83;;;0.70;;
2201;SDS011;1107;48.654;9.250;2022-10-22T07:04:54;1.30;;;0.70;;
2201;SDS011;1107;48.654;9.250;2022-10-22T07:07:22;20.47;;;1.37;;
2201;SDS011;1107;48.654;9.250;2022-10-22T07:09:49;1.50;;;1.07;;
2201;SDS011;1107;48.654;9.250;2022-10-22T07:12:16;1.50;;;0.80;;
2201;SDS011;1107;48.654;9.250;2022-10-22T07:14:43;1.30;;;0.73;;
2201;SDS011;1107;48.654;9.250;2022-10-22T07:17:10;7.93;;;0.90;;
2201;SDS011;1107;48.654;9.250;2022-10-22T07:19:37;1.70;;;0.90;;
2201;SDS011;1107;48.654;9.250;2022-10-22T07:22:04;2.17;;;0.80;;
2201;SDS011;1107;48.654;9.250;2022-10-22T07:24:32;1.40;;;0.70;;
2201;SDS011;1107;48.654;9.250;2022-10-22T07:26:59;1.30;;;0.60;;
2201;SDS011;1107;48.654;9.250;2022-10-22T07:29:26;2.00;;;1.17;;
2201;SDS011;1107;48.654;9.250;2022-10-22T07:31:53;1.40;;;0.90;;
2201;SDS011;1107;48.654;9.250;2022-10-22T07:34:20;8.83;;;0.80;;
2201;SDS011;1107;48.654;9.250;2022-10-22T07:36:47;1.40;;;0.80;;
2201;SDS011;1107;48.654;9.250;2022-10-22T07:39:14;1.50;;;1.00;;
2201;SDS011;1107;48.654;9.250;2022-10-22T07:41:42;8.60;;;1.10;;
2201;SDS011;1107;48.654;9.250;2022-10-22T07:44:09;1.47;;;0.80;;
2201;SDS011;1107;48.654;9.250;2022-10-22T07:46:36;1.40;;;0.97;;
2201;SDS011;1107;48.654;9.250;2022-10-22T07:49:03;1.40;;;0.80;;
2201;SDS011;1107;48.654;9.250;2022-10-22T07:51:30;1.40;;;0.80;;
2201;SDS011;1107;48.654;9.250;2022-10-22T07:53:57;1.53;;;0.90;;
2201;SDS011;1107;48.654;9.250;2022-10-22T07:56:24;1.37;;;0.83;;
2201;SDS011;1107;48.654;9.250;2022-10-22T07:58:52;1.50;;;1.10;;
2201;SDS011;1107;48.654;9.250;2022-10-22T08:01:19;1.60;;;1.30;;
2201;SDS011;1107;48.654;9.250;2022-10-22T08:03:46;1.47;;;1.00;;
2201;SDS011;1107;48.654;9.250;2022-10-22T08:06:13;5.90;;;1.40;;
2201;SDS011;1107;48.654;9.250;2022-10-22T08:08:41;1.90;;;1.20;;
2201;SDS011;1107;48.654;9.250;2022-10-22T08:11:09;1.50;;;1.07;;
2201;SDS011;1107;48.654;9.250;2022-10-22T08:13:37;1.50;;;1.10;;
2201;SDS011;1107;48.654;9.250;2022-10-22T08:16:05;1.60;;;1.00;;
2201;SDS011;1107;48.654;9.250;2022-10-22T08:18:33;1.40;;;0.83;;
2201;SDS011;1107;48.654;9.250;2022-10-22T08:21:00;2.90;;;1.20;;
2201;SDS011;1107;48.654;9.250;2022-10-22T08:23:27;1.50;;;1.00;;
2201;SDS011;1107;48.654;9.250;2022-10-22T08:25:54;1.50;;;1.10;;
2201;SDS011;1107;48.654;9.250;2022-10-22T08:28:22;2.23;;;1.20;;
2201;SDS011;1107;48.654;9.250;2022-10-22T08:30:49;1.50;;;1.10;;
2201;SDS011;1107;48.654;9.250;2022-10-22T08:33:17;1.50;;;1.20;;
2201;SDS011;1107;48.654;9.250;2022-10-22T08:35:46;1.53;;;1.10;;
2201;SDS011;1107;48.654;9.250;2022-10-22T08:38:14;1.90;;;1.23;;
2201;SDS011;1107;48.654;9.250;2022-10-22T08:40:41;1.60;;;1.20;;
2201;SDS011;1107;48.654;9.250;2022-10-22T08:43:16;1.60;;;1.40;;
2201;SDS011;1107;48.654;9.250;2022-10-22T08:46:01;1.40;;;0.83;;
2201;SDS011;1107;48.654;9.250;2022-10-22T08:48:40;1.43;;;0.77;;
2201;SDS011;1107;48.654;9.250;2022-10-22T08:51:10;1.50;;;1.00;;
2201;SDS011;1107;48.654;9.250;2022-10-22T08:53:41;1.60;;;1.00;;
2201;SDS011;1107;48.654;9.250;2022-10-22T08:56:20;1.70;;;1.20;;
2201;SDS011;1107;48.654;9.250;2022-10-22T08:58:49;1.70;;;1.10;;
2201;SDS011;1107;48.654;9.250;2022-10-22T09:01:22;1.30;;;0.70;;
2201;SDS011;1107;48.654;9.250;2022-10-22T09:04:01;1.40;;;0.97;;
2201;SDS011;1107;48.654;9.250;2022-10-22T09:06:34;1.53;;;0.93;;
2201;SDS011;1107;48.654;9.250;2022-10-22T09:09:04;1.50;;;1.00;;
2201;SDS011;1107;48.654;9.250;2022-10-22T09:11:38;2.43;;;0.97;;
2201;SDS011;1107;48.654;9.250;2022-10-22T09:14:08;1.60;;;1.23;;
2201;SDS011;1107;48.654;9.250;2022-10-22T09:16:48;1.50;;;1.20;;
2201;SDS011;1107;48.654;9.250;2022-10-22T09:19:31;5.97;;;1.07;;
2201;SDS011;1107;48.654;9.250;2022-10-22T09:22:08;1.70;;;1.03;;
2201;SDS011;1107;48.654;9.250;2022-10-22T09:24:44;1.60;;;0.97;;
2201;SDS011;1107;48.654;9.250;2022-10-22T09:27:13;1.40;;;1.10;;
2201;SDS011;1107;48.654;9.250;2022-10-22T09:29:42;1.60;;;0.90;;
2201;SDS011;1107;48.654;9.250;2022-10-22T09:32:10;1.60;;;0.80;;
2201;SDS011;1107;48.654;9.250;2022-10-22T09:34:39;1.83;;;1.10;;
2201;SDS011;1107;48.654;9.250;2022-10-22T09:37:08;1.50;;;1.00;;
2201;SDS011;1107;48.654;9.250;2022-10-22T09:39:37;1.50;;;1.07;;
2201;SDS011;1107;48.654;9.250;2022-10-22T09:42:05;1.60;;;1.23;;
2201;SDS011;1107;48.654;9.250;2022-10-22T09:44:33;1.50;;;1.10;;
2201;SDS011;1107;48.654;9.250;2022-10-22T09:47:02;1.53;;;0.97;;
2201;SDS011;1107;48.654;9.250;2022-10-22T09:49:32;7.60;;;1.40;;
2201;SDS011;1107;48.654;9.250;2022-10-22T09:52:01;1.50;;;1.10;;
2201;SDS011;1107;48.654;9.250;2022-10-22T09:54:36;4.07;;;1.17;;
2201;SDS011;1107;48.654;9.250;2022-10-22T09:57:12;1.70;;;1.47;;
2201;SDS011;1107;48.654;9.250;2022-10-22T09:59:42;1.50;;;1.17;;
2201;SDS011;1107;48.654;9.250;2022-10-22T10:02:13;1.50;;;1.10;;
2201;SDS011;1107;48.654;9.250;2022-10-22T10:04:45;1.47;;;1.00;;
2201;SDS011;1107;48.654;9.250;2022-10-22T10:07:18;3.63;;;1.30;;
2201;SDS011;1107;48.654;9.250;2022-10-22T10:09:46;1.50;;;1.20;;
2201;SDS011;1107;48.654;9.250;2022-10-22T10:12:25;5.50;;;1.33;;
2201;SDS011;1107;48.654;9.250;2022-10-22T10:15:06;1.63;;;1.17;;
2201;SDS011;1107;48.654;9.250;2022-10-22T10:17:45;1.60;;;1.20;;
2201;SDS011;1107;48.654;9.250;2022-10-22T10:20:21;1.50;;;1.17;;
2201;SDS011;1107;48.654;9.250;2022-10-22T10:22:58;1.67;;;1.20;;
2201;SDS011;1107;48.654;9.250;2022-10-22T10:25:35;1.40;;;0.80;;
2201;SDS011;1107;48.654;9.250;2022-10-22T10:28:20;1.90;;;1.60;;
2201;SDS011;1107;48.654;9.250;2022-10-22T10:30:58;1.50;;;1.20;;
2201;SDS011;1107;48.654;9.250;2022-10-22T10:33:32;1.40;;;1.00;;
2201;SDS011;1107;48.654;9.250;2022-10-22T10:36:07;1.60;;;1.40;;
2201;SDS011;1107;48.654;9.250;2022-10-22T10:38:43;1.50;;;1.10;;
2201;SDS011;1107;48.654;9.250;2022-10-22T10:41:22;3.43;;;1.43;;
2201;SDS011;1107;48.654;9.250;2022-10-22T10:46:53;1.80;;;1.20;;
2201;SDS011;1107;48.654;9.250;2022-10-22T10:49:29;1.80;;;1.20;;
2201;SDS011;1107;48.654;9.250;2022-10-22T10:52:00;1.77;;;1.10;;
2201;SDS011;1107;48.654;9.250;2022-10-22T10:54:40;1.97;;;1.20;;
2201;SDS011;1107;48.654;9.250;2022-10-22T10:57:15;1.53;;;1.07;;
2201;SDS011;1107;48.654;9.250;2022-10-22T10:59:53;1.50;;;1.00;;
2201;SDS011;1107;48.654;9.250;2022-10-22T11:08:14;1.40;;;1.00;;
2201;SDS011;1107;48.654;9.250;2022-10-22T11:10:47;1.83;;;1.20;;
2201;SDS011;1107;48.654;9.250;2022-10-22T11:13:20;1.50;;;1.20;;
2201;SDS011;1107;48.654;9.250;2022-10-22T11:15:55;4.37;;;1.10;;
2201;SDS011;1107;48.654;9.250;2022-10-22T11:18:29;3.60;;;1.30;;
2201;SDS011;1107;48.654;9.250;2022-10-22T11:21:02;2.63;;;1.13;;
2201;SDS011;1107;48.654;9.250;2022-10-22T11:23:36;1.90;;;1.13;;
2201;SDS011;1107;48.654;9.250;2022-10-22T11:26:10;1.57;;;0.97;;
2201;SDS011;1107;48.654;9.250;2022-10-22T11:28:41;1.60;;;1.20;;
2201;SDS011;1107;48.654;9.250;2022-10-22T11:31:14;1.77;;;1.13;;
2201;SDS011;1107;48.654;9.250;2022-10-22T11:33:44;1.70;;;1.20;;
2201;SDS011;1107;48.654;9.250;2022-10-22T11:36:17;1.50;;;1.00;;
2201;SDS011;1107;48.654;9.250;2022-10-22T11:38:48;4.43;;;1.00;;
2201;SDS011;1107;48.654;9.250;2022-10-22T11:41:21;2.53;;;1.10;;
2201;SDS011;1107;48.654;9.250;2022-10-22T11:43:55;3.40;;;1.10;;
2201;SDS011;1107;48.654;9.250;2022-10-22T11:46:26;2.27;;;1.23;;
2201;SDS011;1107;48.654;9.250;2022-10-22T11:49:13;1.70;;;1.47;;
2201;SDS011;1107;48.654;9.250;2022-10-22T11:51:44;1.70;;;1.10;;
2201;SDS011;1107;48.654;9.250;2022-10-22T11:54:27;1.60;;;1.20;;
2201;SDS011;1107;48.654;9.250;2022-10-22T11:57:10;2.07;;;0.93;;
2201;SDS011;1107;48.654;9.250;2022-10-22T11:59:47;1.50;;;1.07;;
2201;SDS011;1107;48.654;9.250;2022-10-22T12:02:23;1.70;;;1.20;;
2201;SDS011;1107;48.654;9.250;2022-10-22T12:05:31;2.37;;;1.40;;
2201;SDS011;1107;48.654;9.250;2022-10-22T12:08:01;2.00;;;1.50;;
2201;SDS011;1107;48.654;9.250;2022-10-22T12:10:47;1.50;;;1.00;;
2201;SDS011;1107;48.654;9.250;2022-10-22T12:13:23;1.40;;;0.97;;
2201;SDS011;1107;48.654;9.250;2022-10-22T12:15:52;2.13;;;1.80;;
2201;SDS011;1107;48.654;9.250;2022-10-22T12:18:23;1.50;;;1.00;;
2201;SDS011;1107;48.654;9.250;2022-10-22T12:20:52;1.63;;;0.90;;
2201;SDS011;1107;48.654;9.250;2022-10-22T12:23:20;3.93;;;1.00;;
2201;SDS011;1107;48.654;9.250;2022-10-22T12:25:53;1.50;;;1.10;;
2201;SDS011;1107;48.654;9.250;2022-10-22T12:28:22;2.17;;;1.20;;
2201;SDS011;1107;48.654;9.250;2022-10-22T12:30:49;2.33;;;1.00;;
2201;SDS011;1107;48.654;9.250;2022-10-22T12:33:17;6.30;;;1.17;;
2201;SDS011;1107;48.654;9.250;2022-10-22T12:35:46;1.60;;;1.00;;
2201;SDS011;1107;48.654;9.250;2022-10-22T12:38:17;1.50;;;0.90;;
2201;SDS011;1107;48.654;9.250;2022-10-22T12:40:45;1.80;;;0.90;;
2201;SDS011;1107;48.654;9.250;2022-10-22T12:43:15;1.73;;;0.93;;
2201;SDS011;1107;48.654;9.250;2022-10-22T12:45:46;2.80;;;0.90;;
2201;SDS011;1107;48.654;9.250;2022-10-22T12:48:15;1.80;;;1.10;;
2201;SDS011;1107;48.654;9.250;2022-10-22T12:50:46;1.50;;;0.90;;
2201;SDS011;1107;48.654;9.250;2022-10-22T12:53:16;2.00;;;0.90;;
2201;SDS011;1107;48.654;9.250;2022-10-22T12:55:46;1.50;;;1.00;;
2201;SDS011;1107;48.654;9.250;2022-10-22T12:58:18;1.50;;;0.93;;
2201;SDS011;1107;48.654;9.250;2022-10-22T13:00:52;1.67;;;0.80;;
2201;SDS011;1107;48.654;9.250;2022-10-22T13:03:28;1.57;;;0.97;;
2201;SDS011;1107;48.654;9.250;2022-10-22T13:06:10;1.50;;;1.00;;
2201;SDS011;1107;48.654;9.250;2022-10-22T13:08:38;1.90;;;0.80;;
2201;SDS011;1107;48.654;9.250;2022-10-22T13:11:06;1.87;;;0.80;;
2201;SDS011;1107;48.654;9.250;2022-10-22T13:13:40;5.37;;;0.90;;
2201;SDS011;1107;48.654;9.250;2022-10-22T13:16:14;9.40;;;0.93;;
2201;SDS011;1107;48.654;9.250;2022-10-22T13:18:46;4.57;;;1.10;;
2201;SDS011;1107;48.654;9.250;2022-10-22T13:21:27;2.57;;;1.23;;
2201;SDS011;1107;48.654;9.250;2022-10-22T13:23:59;1.80;;;1.37;;
2201;SDS011;1107;48.654;9.250;2022-10-22T13:26:31;3.03;;;1.03;;
2201;SDS011;1107;48.654;9.250;2022-10-22T13:28:59;4.90;;;1.43;;
2201;SDS011;1107;48.654;9.250;2022-10-22T13:31:29;1.60;;;1.07;;
2201;SDS011;1107;48.654;9.250;2022-10-22T13:33:58;1.50;;;0.87;;
2201;SDS011;1107;48.654;9.250;2022-10-22T13:36:27;1.50;;;0.90;;
2201;SDS011;1107;48.654;9.250;2022-10-22T13:38:54;1.40;;;0.70;;
2201;SDS011;1107;48.654;9.250;2022-10-22T13:41:22;3.50;;;0.70;;
2201;SDS011;1107;48.654;9.250;2022-10-22T13:43:51;2.03;;;0.93;;
2201;SDS011;1107;48.654;9.250;2022-10-22T13:46:19;2.10;;;0.93;;
2201;SDS011;1107;48.654;9.250;2022-10-22T13:48:48;1.53;;;0.90;;
2201;SDS011;1107;48.654;9.250;2022-10-22T13:51:18;1.50;;;0.90;;
2201;SDS011;1107;48.654;9.250;2022-10-22T13:53:47;1.90;;;1.10;;
2201;SDS011;1107;48.654;9.250;2022-10-22T13:56:16;2.40;;;1.07;;
2201;SDS011;1107;48.654;9.250;2022-10-22T13:58:45;1.60;;;0.87;;
2201;SDS011;1107;48.654;9.250;2022-10-22T14:01:15;1.70;;;0.80;;
2201;SDS011;1107;48.654;9.250;2022-10-22T14:03:47;4.40;;;1.50;;
2201;SDS011;1107;48.654;9.250;2022-10-22T14:06:17;1.60;;;1.30;;
2201;SDS011;1107;48.654;9.250;2022-10-22T14:08:46;1.80;;;1.00;;
2201;SDS011;1107;48.654;9.250;2022-10-22T14:11:18;2.00;;;0.90;;
2201;SDS011;1107;48.654;9.250;2022-10-22T14:13:45;1.70;;;1.00;;
2201;SDS011;1107;48.654;9.250;2022-10-22T14:16:14;1.80;;;1.03;;
2201;SDS011;1107;48.654;9.250;2022-10-22T14:18:44;2.23;;;1.13;;
2201;SDS011;1107;48.654;9.250;2022-10-22T14:21:13;1.60;;;0.90;;
2201;SDS011;1107;48.654;9.250;2022-10-22T14:23:42;2.00;;;1.00;;
2201;SDS011;1107;48.654;9.250;2022-10-22T14:26:11;1.87;;;1.00;;
2201;SDS011;1107;48.654;9.250;2022-10-22T14:28:46;2.23;;;1.10;;
2201;SDS011;1107;48.654;9.250;2022-10-22T14:31:12;1.80;;;1.03;;
2201;SDS011;1107;48.654;9.250;2022-10-22T14:33:40;2.20;;;1.20;;
2201;SDS011;1107;48.654;9.250;2022-10-22T14:36:07;1.50;;;0.90;;
2201;SDS011;1107;48.654;9.250;2022-10-22T14:38:37;1.67;;;1.00;;
2201;SDS011;1107;48.654;9.250;2022-10-22T14:41:07;1.60;;;1.00;;
2201;SDS011;1107;48.654;9.250;2022-10-22T14:43:43;1.73;;;1.20;;
2201;SDS011;1107;48.654;9.250;2022-10-22T14:46:11;5.40;;;0.97;;
2201;SDS011;1107;48.654;9.250;2022-10-22T14:48:39;2.90;;;1.47;;
2201;SDS011;1107;48.654;9.250;2022-10-22T14:51:06;1.80;;;1.10;;
2201;SDS011;1107;48.654;9.250;2022-10-22T14:53:39;4.80;;;1.27;;
2201;SDS011;1107;48.654;9.250;2022-10-22T14:56:08;1.50;;;1.07;;
2201;SDS011;1107;48.654;9.250;2022-10-22T14:58:37;1.50;;;0.97;;
2201;SDS011;1107;48.654;9.250;2022-10-22T15:01:04;2.53;;;1.10;;
2201;SDS011;1107;48.654;9.250;2022-10-22T15:03:31;3.20;;;1.00;;
2201;SDS011;1107;48.654;9.250;2022-10-22T15:05:58;1.60;;;1.13;;
2201;SDS011;1107;48.654;9.250;2022-10-22T15:08:26;1.50;;;1.10;;
2201;SDS011;1107;48.654;9.250;2022-10-22T15:11:01;1.80;;;1.13;;
2201;SDS011;1107;48.654;9.250;2022-10-22T15:13:29;1.50;;;0.80;;
2201;SDS011;1107;48.654;9.250;2022-10-22T15:15:57;1.80;;;1.17;;
2201;SDS011;1107;48.654;9.250;2022-10-22T15:18:25;1.60;;;1.13;;
2201;SDS011;1107;48.654;9.250;2022-10-22T15:20:56;1.50;;;1.20;;
2201;SDS011;1107;48.654;9.250;2022-10-22T15:23:24;1.60;;;1.20;;
2201;SDS011;1107;48.654;9.250;2022-10-22T15:25:51;1.80;;;1.13;;
2201;SDS011;1107;48.654;9.250;2022-10-22T15:28:19;1.80;;;1.20;;
2201;SDS011;1107;48.654;9.250;2022-10-22T15:30:50;2.37;;;1.00;;
2201;SDS011;1107;48.654;9.250;2022-10-22T15:33:18;1.57;;;1.10;;
2201;SDS011;1107;48.654;9.250;2022-10-22T15:35:45;3.20;;;3.00;;
2201;SDS011;1107;48.654;9.250;2022-10-22T15:38:12;15.27;;;3.60;;
2201;SDS011;1107;48.654;9.250;2022-10-22T15:40:39;2.47;;;2.27;;
2201;SDS011;1107;48.654;9.250;2022-10-22T15:43:06;3.40;;;2.60;;